createdAt,value
2023-05-01T00:00:29.751Z,500.00
2023-05-01T00:01:29.761Z,500.00
2023-05-01T00:02:29.896Z,497.00
2023-05-01T00:03:29.924Z,500.00
2023-05-01T00:04:29.830Z,500.00
2023-05-01T00:05:29.818Z,504.00
2023-05-01T00:06:29.853Z,505.00
2023-05-01T00:07:29.866Z,501.00
2023-05-01T00:08:29.940Z,511.00
2023-05-01T00:09:30.039Z,512.00
2023-05-01T00:10:30.132Z,496.00
2023-05-01T00:11:30.419Z,500.00
2023-05-01T00:12:30.194Z,500.00
2023-05-01T00:13:30.276Z,500.00
2023-05-01T00:14:30.298Z,510.00
2023-05-01T00:15:30.378Z,555.00
2023-05-01T00:16:30.480Z,598.00
2023-05-01T00:17:30.499Z,623.00
2023-05-01T00:18:30.543Z,624.00
2023-05-01T00:19:30.612Z,631.00
2023-05-01T00:20:30.700Z,634.00
2023-05-01T00:21:30.749Z,624.00
2023-05-01T00:22:30.819Z,636.00
2023-05-01T00:23:30.922Z,644.00
2023-05-01T00:24:30.970Z,655.00
2023-05-01T00:25:31.024Z,665.00
2023-05-01T00:26:31.146Z,662.00
2023-05-01T00:27:31.130Z,630.00
2023-05-01T00:28:31.175Z,623.00
2023-05-01T00:29:31.213Z,649.00
2023-05-01T00:30:31.206Z,659.00
2023-05-01T00:31:31.279Z,821.00
2023-05-01T00:32:31.274Z,653.00
2023-05-01T00:33:31.275Z,662.00
2023-05-01T00:34:31.266Z,715.00
2023-05-01T00:35:31.334Z,710.00
2023-05-01T00:36:31.276Z,757.00
2023-05-01T00:37:31.303Z,694.00
2023-05-01T00:38:31.321Z,641.00
2023-05-01T00:39:31.308Z,638.00
2023-05-01T00:40:31.319Z,650.00
2023-05-01T00:41:31.334Z,652.00
2023-05-01T00:42:31.372Z,643.00
2023-05-01T00:43:31.365Z,648.00
2023-05-01T00:44:31.398Z,639.00
2023-05-01T00:45:31.447Z,641.00
2023-05-01T00:46:31.544Z,650.00
2023-05-01T00:47:31.501Z,693.00
2023-05-01T00:48:31.457Z,809.00
2023-05-01T00:49:31.485Z,712.00
2023-05-01T00:50:31.510Z,625.00
2023-05-01T00:51:31.497Z,593.00
2023-05-01T00:52:31.506Z,608.00
2023-05-01T00:53:31.529Z,639.00
2023-05-01T00:54:31.575Z,690.00
2023-05-01T00:55:31.621Z,664.00
2023-05-01T00:56:31.642Z,650.00
2023-05-01T00:57:31.699Z,664.00
2023-05-01T00:58:31.735Z,664.00
2023-05-01T00:59:31.720Z,644.00
2023-05-01T01:00:31.776Z,601.00
2023-05-01T01:01:31.764Z,661.00
2023-05-01T01:02:31.742Z,715.00
2023-05-01T01:03:31.747Z,671.00
2023-05-01T01:04:31.860Z,669.00
2023-05-01T01:05:31.761Z,683.00
2023-05-01T01:06:31.791Z,655.00
2023-05-01T01:07:31.768Z,724.00
2023-05-01T01:08:32.762Z,687.00
2023-05-01T01:09:31.811Z,658.00
2023-05-01T01:10:31.788Z,662.00
2023-05-01T01:11:31.802Z,650.00
2023-05-01T01:12:31.826Z,642.00
2023-05-01T01:13:31.854Z,646.00
2023-05-01T01:14:31.903Z,647.00
2023-05-01T01:15:31.914Z,655.00
2023-05-01T01:16:32.010Z,656.00
2023-05-01T01:17:32.094Z,657.00
2023-05-01T01:18:31.971Z,689.00
2023-05-01T01:19:32.081Z,694.00
2023-05-01T01:20:32.059Z,761.00
2023-05-01T01:21:32.117Z,792.00
2023-05-01T01:22:32.150Z,830.00
2023-05-01T01:23:32.186Z,829.00
2023-05-01T01:24:32.232Z,888.00
2023-05-01T01:25:32.220Z,939.00
2023-05-01T01:26:32.235Z,967.00
2023-05-01T01:27:32.936Z,877.00
2023-05-01T01:28:32.265Z,887.00
2023-05-01T01:29:32.353Z,905.00
2023-05-01T01:30:32.534Z,943.00
2023-05-01T01:31:32.365Z,973.00
2023-05-01T01:32:32.437Z,986.00
2023-05-01T01:33:32.383Z,1107.00
2023-05-01T01:34:32.421Z,1236.00
2023-05-01T01:35:32.421Z,1385.00
2023-05-01T01:36:32.413Z,1434.00
2023-05-01T01:37:32.439Z,1463.00
2023-05-01T01:38:32.469Z,1557.00
2023-05-01T01:39:32.496Z,1617.00
2023-05-01T01:40:32.522Z,1632.00
2023-05-01T01:41:32.532Z,1582.00
2023-05-01T01:42:32.549Z,1573.00
2023-05-01T01:43:32.555Z,1635.00
2023-05-01T01:44:32.542Z,1700.00
2023-05-01T01:45:32.562Z,1765.00
2023-05-01T01:46:32.684Z,1823.00
2023-05-01T01:47:32.711Z,1873.00
2023-05-01T01:48:32.637Z,1940.00
2023-05-01T01:49:32.660Z,1972.00
2023-05-01T01:50:32.715Z,1955.00
2023-05-01T01:51:32.689Z,2077.00
2023-05-01T01:52:32.707Z,2094.00
2023-05-01T01:53:32.730Z,2084.00
2023-05-01T01:54:32.770Z,2093.00
2023-05-01T01:55:32.805Z,2097.00
2023-05-01T01:56:32.789Z,1998.00
2023-05-01T01:57:32.807Z,1613.00
2023-05-01T01:58:32.820Z,1418.00
2023-05-01T01:59:32.845Z,1345.00
2023-05-01T02:00:32.891Z,1240.00
2023-05-01T02:01:32.926Z,1214.00
2023-05-01T02:02:32.969Z,1224.00
2023-05-01T02:03:32.970Z,1275.00
2023-05-01T02:04:32.923Z,1294.00
2023-05-01T02:05:33.003Z,1232.00
2023-05-01T02:06:33.021Z,1316.00
2023-05-01T02:07:32.963Z,1437.00
2023-05-01T02:08:32.992Z,1587.00
2023-05-01T02:09:33.004Z,1702.00
2023-05-01T02:10:33.026Z,1740.00
2023-05-01T02:11:33.046Z,1747.00
2023-05-01T02:12:33.065Z,1705.00
2023-05-01T02:13:33.121Z,1628.00
2023-05-01T02:14:33.115Z,1651.00
2023-05-01T02:15:33.139Z,1648.00
2023-05-01T02:16:33.171Z,1737.00
2023-05-01T02:17:33.231Z,1821.00
2023-05-01T02:18:33.220Z,1799.00
2023-05-01T02:19:33.222Z,1780.00
2023-05-01T02:20:33.264Z,1752.00
2023-05-01T02:21:33.281Z,1682.00
2023-05-01T02:22:33.305Z,1669.00
2023-05-01T02:23:33.328Z,1781.00
2023-05-01T02:24:33.354Z,1755.00
2023-05-01T02:25:33.388Z,1719.00
2023-05-01T02:26:33.419Z,1747.00
2023-05-01T02:27:33.446Z,1791.00
2023-05-01T02:28:33.483Z,1807.00
2023-05-01T02:29:33.493Z,1774.00
2023-05-01T02:30:33.538Z,1731.00
2023-05-01T02:31:33.593Z,1695.00
2023-05-01T02:32:33.592Z,1729.00
2023-05-01T02:33:33.593Z,1686.00
2023-05-01T02:34:33.653Z,1614.00
2023-05-01T02:35:33.668Z,1662.00
2023-05-01T02:36:33.704Z,1709.00
2023-05-01T02:37:33.723Z,1730.00
2023-05-01T02:38:33.755Z,1627.00
2023-05-01T02:39:33.788Z,1596.00
2023-05-01T02:40:33.826Z,1588.00
2023-05-01T02:41:33.868Z,1584.00
2023-05-01T02:42:33.873Z,1691.00
2023-05-01T02:43:33.899Z,1721.00
2023-05-01T02:44:33.916Z,1691.00
2023-05-01T02:45:33.979Z,1701.00
2023-05-01T02:46:34.081Z,1722.00
2023-05-01T02:47:34.072Z,1778.00
2023-05-01T02:48:34.012Z,1821.00
2023-05-01T02:49:34.033Z,1875.00
2023-05-01T02:50:34.072Z,1918.00
2023-05-01T02:51:34.076Z,1903.00
2023-05-01T02:52:34.089Z,1890.00
2023-05-01T02:53:34.125Z,1874.00
2023-05-01T02:54:34.143Z,1876.00
2023-05-01T02:55:34.165Z,1776.00
2023-05-01T02:56:34.176Z,1794.00
2023-05-01T02:57:34.202Z,1581.00
2023-05-01T02:58:34.229Z,1441.00
2023-05-01T02:59:34.252Z,1357.00
2023-05-01T03:00:34.280Z,1247.00
2023-05-01T03:01:34.339Z,1207.00
2023-05-01T03:02:34.388Z,1051.00
2023-05-01T03:03:34.383Z,873.00
2023-05-01T03:04:34.433Z,869.00
2023-05-01T03:05:34.453Z,806.00
2023-05-01T03:06:34.513Z,890.00
2023-05-01T03:07:34.453Z,991.00
2023-05-01T03:08:34.471Z,1105.00
2023-05-01T03:09:34.495Z,1225.00
2023-05-01T03:10:34.516Z,1328.00
2023-05-01T03:11:34.561Z,1519.00
2023-05-01T03:12:34.589Z,1712.00
2023-05-01T03:13:34.657Z,1871.00
2023-05-01T03:14:34.628Z,1926.00
2023-05-01T03:15:34.647Z,1981.00
2023-05-01T03:16:34.708Z,2007.00
2023-05-01T03:17:34.727Z,2023.00
2023-05-01T03:18:34.738Z,2017.00
2023-05-01T03:19:34.711Z,2059.00
2023-05-01T03:20:34.769Z,2098.00
2023-05-01T03:21:34.775Z,2159.00
2023-05-01T03:22:34.820Z,2223.00
2023-05-01T03:23:34.793Z,2291.00
2023-05-01T03:24:34.818Z,2364.00
2023-05-01T03:25:34.818Z,2440.00
2023-05-01T03:26:34.856Z,2495.00
2023-05-01T03:27:34.877Z,2518.00
2023-05-01T03:28:34.889Z,2596.00
2023-05-01T03:29:34.897Z,2615.00
2023-05-01T03:30:34.924Z,2654.00
2023-05-01T03:31:34.970Z,2658.00
2023-05-01T03:32:34.978Z,2697.00
2023-05-01T03:33:34.949Z,2708.00
2023-05-01T03:34:34.980Z,2639.00
2023-05-01T03:35:35.056Z,2596.00
2023-05-01T03:36:35.047Z,2454.00
2023-05-01T03:37:35.024Z,2341.00
2023-05-01T03:38:35.058Z,2363.00
2023-05-01T03:39:35.071Z,2219.00
2023-05-01T03:40:35.079Z,2122.00
2023-05-01T03:41:35.098Z,2092.00
2023-05-01T03:42:35.097Z,2135.00
2023-05-01T03:43:35.115Z,2177.00
2023-05-01T03:44:35.161Z,2209.00
2023-05-01T03:45:35.199Z,2231.00
2023-05-01T03:46:35.241Z,2225.00
2023-05-01T03:47:35.297Z,2225.00
2023-05-01T03:48:35.281Z,2221.00
2023-05-01T03:49:35.305Z,2238.00
2023-05-01T03:50:35.328Z,2261.00
2023-05-01T03:51:35.361Z,2294.00
2023-05-01T03:52:35.350Z,2319.00
2023-05-01T03:53:35.369Z,2322.00
2023-05-01T03:54:35.403Z,2305.00
2023-05-01T03:55:35.376Z,2323.00
2023-05-01T03:56:35.427Z,2299.00
2023-05-01T03:57:35.401Z,2304.00
2023-05-01T03:58:35.399Z,2319.00
2023-05-01T03:59:35.435Z,2332.00
2023-05-01T04:00:35.456Z,2345.00
2023-05-01T04:01:35.493Z,2363.00
2023-05-01T04:02:35.603Z,2401.00
2023-05-01T04:03:35.613Z,2425.00
2023-05-01T04:04:35.715Z,2457.00
2023-05-01T04:05:35.646Z,2560.00
2023-05-01T04:06:35.692Z,2653.00
2023-05-01T04:07:35.688Z,2722.00
2023-05-01T04:08:35.697Z,2778.00
2023-05-01T04:09:35.706Z,2831.00
2023-05-01T04:10:35.758Z,2870.00
2023-05-01T04:11:35.765Z,2916.00
2023-05-01T04:12:35.777Z,2945.00
2023-05-01T04:13:35.825Z,2946.00
2023-05-01T04:14:35.855Z,2956.00
2023-05-01T04:15:35.893Z,2813.00
2023-05-01T04:16:36.027Z,2600.00
2023-05-01T04:17:36.124Z,2464.00
2023-05-01T04:18:36.097Z,2348.00
2023-05-01T04:19:36.128Z,2347.00
2023-05-01T04:20:36.172Z,2298.00
2023-05-01T04:21:36.235Z,2296.00
2023-05-01T04:22:36.238Z,2279.00
2023-05-01T04:23:36.261Z,2282.00
2023-05-01T04:24:36.280Z,2302.00
2023-05-01T04:25:36.324Z,2445.00
2023-05-01T04:26:36.355Z,2476.00
2023-05-01T04:27:36.322Z,2406.00
2023-05-01T04:28:36.332Z,2365.00
2023-05-01T04:29:36.336Z,2291.00
2023-05-01T04:30:36.341Z,2256.00
2023-05-01T04:31:36.507Z,2196.00
2023-05-01T04:32:36.409Z,2203.00
2023-05-01T04:33:36.391Z,2278.00
2023-05-01T04:34:36.396Z,2357.00
2023-05-01T04:35:36.418Z,2412.00
2023-05-01T04:36:36.486Z,2438.00
2023-05-01T04:37:36.484Z,2486.00
2023-05-01T04:38:36.520Z,2519.00
2023-05-01T04:39:36.547Z,2547.00
2023-05-01T04:40:36.595Z,2544.00
2023-05-01T04:41:36.664Z,2581.00
2023-05-01T04:42:36.682Z,2592.00
2023-05-01T04:43:36.699Z,2607.00
2023-05-01T04:44:36.756Z,2631.00
2023-05-01T04:45:36.832Z,2609.00
2023-05-01T04:46:36.996Z,2579.00
2023-05-01T04:47:37.019Z,2566.00
2023-05-01T04:48:37.101Z,2585.00
2023-05-01T04:49:37.121Z,2639.00
2023-05-01T04:50:37.166Z,2675.00
2023-05-01T04:51:37.270Z,2776.00
2023-05-01T04:52:37.253Z,2860.00
2023-05-01T04:53:37.279Z,2917.00
2023-05-01T04:54:37.310Z,2964.00
2023-05-01T04:55:37.343Z,2915.00
2023-05-01T04:56:37.400Z,2799.00
2023-05-01T04:57:37.390Z,2674.00
2023-05-01T04:58:37.437Z,2550.00
2023-05-01T04:59:37.432Z,2477.00
2023-05-01T05:00:37.460Z,2417.00
2023-05-01T05:01:37.604Z,2386.00
2023-05-01T05:02:37.641Z,2382.00
2023-05-01T05:03:37.771Z,2288.00
2023-05-01T05:04:37.578Z,2187.00
2023-05-01T05:05:37.642Z,2245.00
2023-05-01T05:06:37.694Z,2381.00
2023-05-01T05:07:37.651Z,2536.00
2023-05-01T05:08:37.673Z,2617.00
2023-05-01T05:09:37.667Z,2711.00
2023-05-01T05:10:37.675Z,2740.00
2023-05-01T05:11:37.724Z,2648.00
2023-05-01T05:12:37.729Z,2587.00
2023-05-01T05:13:37.729Z,2406.00
2023-05-01T05:14:37.789Z,2290.00
2023-05-01T05:15:37.763Z,2268.00
2023-05-01T05:16:38.233Z,2248.00
2023-05-01T05:17:37.879Z,2166.00
2023-05-01T05:18:37.849Z,2015.00
2023-05-01T05:19:37.898Z,1922.00
2023-05-01T05:20:37.924Z,1850.00
2023-05-01T05:21:38.024Z,1797.00
2023-05-01T05:22:38.026Z,1815.00
2023-05-01T05:23:38.073Z,1750.00
2023-05-01T05:24:38.116Z,1796.00
2023-05-01T05:25:38.174Z,1995.00
2023-05-01T05:26:38.168Z,2075.00
2023-05-01T05:27:38.185Z,2149.00
2023-05-01T05:28:38.139Z,2171.00
2023-05-01T05:29:38.163Z,2210.00
2023-05-01T05:30:38.244Z,2234.00
2023-05-01T05:31:38.369Z,2222.00
2023-05-01T05:32:38.362Z,2215.00
2023-05-01T05:33:38.349Z,2243.00
2023-05-01T05:34:38.408Z,2271.00
2023-05-01T05:35:38.454Z,2292.00
2023-05-01T05:36:38.562Z,2322.00
2023-05-01T05:37:38.563Z,2347.00
2023-05-01T05:38:38.616Z,2379.00
2023-05-01T05:39:38.672Z,2414.00
2023-05-01T05:40:38.708Z,2419.00
2023-05-01T05:41:38.772Z,2427.00
2023-05-01T05:42:38.793Z,2415.00
2023-05-01T05:43:38.832Z,2382.00
2023-05-01T05:44:38.886Z,2387.00
2023-05-01T05:45:39.003Z,2413.00
2023-05-01T05:46:39.113Z,2434.00
2023-05-01T05:47:39.132Z,2406.00
2023-05-01T05:48:39.090Z,2415.00
2023-05-01T05:49:39.141Z,2412.00
2023-05-01T05:50:39.192Z,2414.00
2023-05-01T05:51:39.264Z,2447.00
2023-05-01T05:52:39.296Z,2435.00
2023-05-01T05:53:39.357Z,2409.00
2023-05-01T05:54:39.419Z,2431.00
2023-05-01T05:55:39.464Z,2453.00
2023-05-01T05:56:39.516Z,2468.00
2023-05-01T05:57:39.545Z,2469.00
2023-05-01T05:58:39.600Z,2522.00
2023-05-01T05:59:39.634Z,2557.00
2023-05-01T06:00:39.681Z,2614.00
2023-05-01T06:01:39.721Z,2647.00
2023-05-01T06:02:40.040Z,2631.00
2023-05-01T06:03:40.096Z,2680.00
2023-05-01T06:04:39.850Z,2693.00
2023-05-01T06:05:39.899Z,2705.00
2023-05-01T06:06:39.886Z,2695.00
2023-05-01T06:07:39.846Z,2659.00
2023-05-01T06:08:39.861Z,2680.00
2023-05-01T06:09:39.879Z,2684.00
2023-05-01T06:10:39.908Z,2700.00
2023-05-01T06:11:39.955Z,2802.00
2023-05-01T06:12:42.086Z,2856.00
2023-05-01T06:13:39.952Z,2838.00
2023-05-01T06:14:39.898Z,2821.00
2023-05-01T06:15:39.914Z,2840.00
2023-05-01T06:16:39.949Z,2861.00
2023-05-01T06:17:39.893Z,2843.00
2023-05-01T06:18:39.847Z,2794.00
2023-05-01T06:19:39.801Z,2723.00
2023-05-01T06:20:39.784Z,2666.00
2023-05-01T06:21:39.765Z,2596.00
2023-05-01T06:22:39.736Z,2557.00
2023-05-01T06:23:39.700Z,2570.00
2023-05-01T06:24:39.699Z,2449.00
2023-05-01T06:25:39.695Z,2442.00
2023-05-01T06:26:39.629Z,2341.00
2023-05-01T06:27:39.604Z,2130.00
2023-05-01T06:28:39.573Z,1976.00
2023-05-01T06:29:39.561Z,1946.00
2023-05-01T06:30:39.536Z,1872.00
2023-05-01T06:31:39.571Z,1830.00
2023-05-01T06:32:39.554Z,1911.00
2023-05-01T06:33:39.482Z,1789.00
2023-05-01T06:34:39.485Z,1750.00
2023-05-01T06:35:39.421Z,1754.00
2023-05-01T06:36:39.404Z,1793.00
2023-05-01T06:37:39.459Z,1913.00
2023-05-01T06:38:39.344Z,1917.00
2023-05-01T06:39:39.313Z,1918.00
2023-05-01T06:40:39.290Z,1869.00
2023-05-01T06:41:39.257Z,1825.00
2023-05-01T06:42:39.237Z,1864.00
2023-05-01T06:43:39.213Z,1911.00
2023-05-01T06:44:39.189Z,2042.00
2023-05-01T06:45:39.147Z,2118.00
2023-05-01T06:46:39.241Z,2000.00
2023-05-01T06:47:39.097Z,1949.00
2023-05-01T06:48:39.060Z,1993.00
2023-05-01T06:49:39.039Z,2019.00
2023-05-01T06:50:39.049Z,2050.00
2023-05-01T06:51:38.962Z,2092.00
2023-05-01T06:52:38.934Z,2110.00
2023-05-01T06:53:38.902Z,2167.00
2023-05-01T06:54:38.885Z,2194.00
2023-05-01T06:55:38.814Z,2223.00
2023-05-01T06:56:38.779Z,2226.00
2023-05-01T06:57:38.737Z,2195.00
2023-05-01T06:58:38.698Z,2344.00
2023-05-01T06:59:38.656Z,2277.00
2023-05-01T07:00:38.739Z,2213.00
2023-05-01T07:01:38.657Z,2035.00
2023-05-01T07:02:38.793Z,1947.00
2023-05-01T07:03:38.722Z,1751.00
2023-05-01T07:04:38.669Z,1635.00
2023-05-01T07:05:38.704Z,1570.00
2023-05-01T07:06:38.741Z,1436.00
2023-05-01T07:07:42.252Z,1387.00
2023-05-01T07:08:38.665Z,1295.00
2023-05-01T07:09:38.612Z,1103.00
2023-05-01T07:10:40.532Z,1040.00
2023-05-01T07:11:38.551Z,893.00
2023-05-01T07:12:38.564Z,915.00
2023-05-01T07:13:38.459Z,746.00
2023-05-01T07:14:38.414Z,670.00
2023-05-01T07:15:38.364Z,649.00
2023-05-01T07:16:38.376Z,642.00
2023-05-01T07:17:38.344Z,635.00
2023-05-01T07:18:38.272Z,659.00
2023-05-01T07:19:38.227Z,682.00
2023-05-01T07:20:38.201Z,715.00
2023-05-01T07:21:38.143Z,738.00
2023-05-01T07:22:38.137Z,713.00
2023-05-01T07:23:38.090Z,687.00
2023-05-01T07:24:38.047Z,659.00
2023-05-01T07:25:38.004Z,645.00
2023-05-01T07:26:37.971Z,572.00
2023-05-01T07:27:37.933Z,639.00
2023-05-01T07:28:37.877Z,962.00
2023-05-01T07:29:37.837Z,1233.00
2023-05-01T07:30:37.802Z,1497.00
2023-05-01T07:31:37.899Z,1520.00
2023-05-01T07:32:37.794Z,1483.00
2023-05-01T07:33:37.654Z,1438.00
2023-05-01T07:34:37.666Z,1243.00
2023-05-01T07:35:37.670Z,1295.00
2023-05-01T07:36:37.684Z,1146.00
2023-05-01T07:37:37.679Z,1024.00
2023-05-01T07:38:38.490Z,758.00
2023-05-01T07:39:37.700Z,760.00
2023-05-01T07:40:37.698Z,635.00
2023-05-01T07:41:37.708Z,660.00
2023-05-01T07:42:37.748Z,820.00
2023-05-01T07:43:37.720Z,979.00
2023-05-01T07:44:37.744Z,1068.00
2023-05-01T07:45:37.802Z,1097.00
2023-05-01T07:46:38.024Z,860.00
2023-05-01T07:47:37.893Z,866.00
2023-05-01T07:48:39.013Z,569.00
2023-05-01T07:49:37.722Z,547.00
2023-05-01T07:50:37.696Z,570.00
2023-05-01T07:51:37.707Z,550.00
2023-05-01T07:52:37.696Z,586.00
2023-05-01T07:53:37.669Z,493.00
2023-05-01T07:54:37.676Z,426.00
2023-05-01T07:55:37.635Z,422.00
2023-05-01T07:56:37.565Z,400.00
2023-05-01T07:57:37.514Z,400.00
2023-05-01T07:58:37.443Z,425.00
2023-05-01T07:59:37.372Z,400.00
2023-05-01T08:00:37.306Z,400.00
2023-05-01T08:01:37.282Z,400.00
2023-05-01T08:02:37.354Z,400.00
2023-05-01T08:03:37.352Z,400.00
2023-05-01T08:04:37.281Z,400.00
2023-05-01T08:05:37.082Z,437.00
2023-05-01T08:06:37.133Z,491.00
2023-05-01T08:07:36.998Z,511.00
2023-05-01T08:08:36.962Z,478.00
2023-05-01T08:09:36.902Z,574.00
2023-05-01T08:10:36.898Z,456.00
2023-05-01T08:11:36.816Z,457.00
2023-05-01T08:12:36.806Z,522.00
2023-05-01T08:13:36.723Z,570.00
2023-05-01T08:14:36.672Z,563.00
2023-05-01T08:15:36.675Z,602.00
2023-05-01T08:16:36.660Z,559.00
2023-05-01T08:17:36.662Z,542.00
2023-05-01T08:18:36.590Z,634.00
2023-05-01T08:19:36.567Z,665.00
2023-05-01T08:20:36.541Z,685.00
2023-05-01T08:21:36.498Z,636.00
2023-05-01T08:22:36.440Z,1030.00
2023-05-01T08:23:36.393Z,847.00
2023-05-01T08:24:36.348Z,940.00
2023-05-01T08:25:36.330Z,982.00
2023-05-01T08:26:36.294Z,1025.00
2023-05-01T08:27:36.229Z,759.00
2023-05-01T08:28:36.166Z,615.00
2023-05-01T08:29:36.139Z,469.00
2023-05-01T08:30:36.138Z,465.00
2023-05-01T08:31:36.240Z,492.00
2023-05-01T08:32:36.128Z,484.00
2023-05-01T08:33:36.032Z,485.00
2023-05-01T08:34:35.974Z,400.00
2023-05-01T08:35:35.890Z,400.00
2023-05-01T08:36:35.822Z,400.00
2023-05-01T08:37:35.746Z,400.00
2023-05-01T08:38:35.685Z,400.00
2023-05-01T08:39:35.613Z,400.00
2023-05-01T08:40:35.544Z,400.00
2023-05-01T08:41:35.497Z,400.00
2023-05-01T08:42:35.470Z,400.00
2023-05-01T08:43:35.423Z,400.00
2023-05-01T08:44:35.391Z,400.00
2023-05-01T08:45:35.353Z,400.00
2023-05-01T08:46:35.401Z,516.00
2023-05-01T08:47:35.300Z,508.00
2023-05-01T08:48:35.227Z,400.00
2023-05-01T08:49:35.182Z,400.00
2023-05-01T08:50:35.155Z,400.00
2023-05-01T08:51:35.090Z,480.00
2023-05-01T08:52:35.061Z,472.00
2023-05-01T08:53:34.948Z,400.00
2023-05-01T08:54:34.843Z,400.00
2023-05-01T08:55:34.734Z,482.00
2023-05-01T08:56:34.654Z,549.00
2023-05-01T08:57:34.596Z,638.00
2023-05-01T08:58:34.556Z,691.00
2023-05-01T08:59:34.481Z,863.00
2023-05-01T09:00:34.413Z,656.00
2023-05-01T09:01:34.418Z,571.00
2023-05-01T09:02:34.354Z,551.00
2023-05-01T09:03:34.203Z,445.00
2023-05-01T09:04:34.055Z,443.00
2023-05-01T09:05:33.952Z,437.00
2023-05-01T09:06:34.005Z,407.00
2023-05-01T09:07:33.806Z,486.00
2023-05-01T09:08:33.665Z,746.00
2023-05-01T09:09:33.560Z,711.00
2023-05-01T09:10:33.480Z,664.00
2023-05-01T09:11:33.358Z,558.00
2023-05-01T09:12:33.354Z,906.00
2023-05-01T09:13:33.276Z,698.00
2023-05-01T09:14:33.216Z,627.00
2023-05-01T09:15:33.149Z,542.00
2023-05-01T09:16:33.133Z,480.00
2023-05-01T09:17:33.104Z,453.00
2023-05-01T09:18:32.957Z,468.00
2023-05-01T09:19:32.901Z,531.00
2023-05-01T09:20:32.835Z,422.00
2023-05-01T09:21:32.731Z,491.00
2023-05-01T09:22:32.686Z,482.00
2023-05-01T09:23:32.571Z,574.00
2023-05-01T09:24:32.480Z,793.00
2023-05-01T09:25:32.431Z,1059.00
2023-05-01T09:26:32.369Z,1054.00
2023-05-01T09:27:32.309Z,1145.00
2023-05-01T09:28:32.234Z,720.00
2023-05-01T09:29:32.152Z,540.00
2023-05-01T09:30:32.082Z,491.00
2023-05-01T09:31:31.951Z,520.00
2023-05-01T09:32:31.865Z,505.00
2023-05-01T09:33:31.737Z,464.00
2023-05-01T09:34:31.594Z,507.00
2023-05-01T09:35:31.507Z,430.00
2023-05-01T09:36:31.438Z,550.00
2023-05-01T09:37:31.353Z,400.00
2023-05-01T09:38:31.240Z,400.00
2023-05-01T09:39:31.136Z,488.00
2023-05-01T09:40:31.059Z,546.00
2023-05-01T09:41:30.928Z,540.00
2023-05-01T09:42:30.817Z,558.00
2023-05-01T09:43:30.700Z,609.00
2023-05-01T09:44:30.592Z,754.00
2023-05-01T09:45:30.493Z,602.00
2023-05-01T09:46:30.510Z,567.00
2023-05-01T09:47:30.433Z,538.00
2023-05-01T09:48:32.001Z,513.00
2023-05-01T09:49:30.170Z,516.00
2023-05-01T09:50:30.054Z,530.00
2023-05-01T09:51:29.955Z,595.00
2023-05-01T09:52:29.852Z,990.00
2023-05-01T09:53:29.740Z,1207.00
2023-05-01T09:54:29.566Z,910.00
2023-05-01T09:55:29.473Z,1064.00
2023-05-01T09:56:29.312Z,967.00
2023-05-01T09:57:29.194Z,890.00
2023-05-01T09:58:29.072Z,1193.00
2023-05-01T09:59:28.931Z,1378.00
2023-05-01T10:00:28.802Z,1948.00
2023-05-01T10:01:28.695Z,1765.00
2023-05-01T10:02:28.690Z,1364.00
2023-05-01T10:03:28.544Z,1232.00
2023-05-01T10:04:28.276Z,1239.00
2023-05-01T10:05:28.138Z,1132.00
2023-05-01T10:06:28.080Z,1123.00
2023-05-01T10:07:27.869Z,957.00
2023-05-01T10:08:27.752Z,875.00
2023-05-01T10:09:27.601Z,1244.00
2023-05-01T10:10:27.470Z,989.00
2023-05-01T10:11:27.387Z,1114.00
2023-05-01T10:12:27.193Z,1190.00
2023-05-01T10:13:27.059Z,949.00
2023-05-01T10:14:27.239Z,1073.00
2023-05-01T10:15:27.191Z,1404.00
2023-05-01T10:16:26.680Z,1120.00
2023-05-01T10:17:26.598Z,937.00
2023-05-01T10:18:26.459Z,1021.00
2023-05-01T10:19:26.345Z,674.00
2023-05-01T10:20:26.238Z,786.00
2023-05-01T10:21:26.141Z,764.00
2023-05-01T10:22:26.055Z,959.00
2023-05-01T10:23:25.947Z,1079.00
2023-05-01T10:24:25.855Z,1450.00
2023-05-01T10:25:25.739Z,1217.00
2023-05-01T10:26:25.638Z,1692.00
2023-05-01T10:27:25.645Z,2277.00
2023-05-01T10:28:25.570Z,2961.00
2023-05-01T10:29:25.518Z,3537.00
2023-05-01T10:30:25.491Z,4154.00
2023-05-01T10:31:25.596Z,4777.00
2023-05-01T10:32:25.534Z,5338.00
2023-05-01T10:33:25.453Z,5699.00
2023-05-01T10:34:27.063Z,5753.00
2023-05-01T10:35:25.371Z,5699.00
2023-05-01T10:36:25.323Z,5862.00
2023-05-01T10:37:25.220Z,6078.00
2023-05-01T10:38:25.160Z,6180.00
2023-05-01T10:39:25.100Z,6038.00
2023-05-01T10:40:25.049Z,5925.00
2023-05-01T10:41:25.003Z,5683.00
2023-05-01T10:42:24.994Z,5604.00
2023-05-01T10:43:24.921Z,5763.00
2023-05-01T10:44:25.308Z,5860.00
2023-05-01T10:45:24.843Z,6155.00
2023-05-01T10:46:24.881Z,6227.00
2023-05-01T10:47:24.953Z,6365.00
2023-05-01T10:48:24.705Z,6114.00
2023-05-01T10:49:24.654Z,6350.00
2023-05-01T10:50:24.618Z,6450.00
2023-05-01T10:51:27.256Z,6354.00
2023-05-01T10:52:24.485Z,6291.00
2023-05-01T10:53:24.432Z,6358.00
2023-05-01T10:54:24.376Z,6385.00
2023-05-01T10:55:24.344Z,6354.00
2023-05-01T10:56:24.254Z,5969.00
2023-05-01T10:57:24.199Z,6054.00
2023-05-01T10:58:24.140Z,6188.00
2023-05-01T10:59:24.094Z,5907.00
2023-05-01T11:00:24.029Z,5829.00
2023-05-01T11:01:23.993Z,6001.00
2023-05-01T11:02:24.015Z,6116.00
2023-05-01T11:03:23.853Z,6162.00
2023-05-01T11:04:23.804Z,6022.00
2023-05-01T11:05:35.763Z,5904.00
2023-05-01T11:06:23.785Z,5710.00
2023-05-01T11:07:23.624Z,5862.00
2023-05-01T11:08:23.528Z,5927.00
2023-05-01T11:09:23.452Z,5935.00
2023-05-01T11:10:23.391Z,5867.00
2023-05-01T11:11:23.339Z,5734.00
2023-05-01T11:12:23.333Z,5718.00
2023-05-01T11:13:23.232Z,5902.00
2023-05-01T11:14:23.161Z,5965.00
2023-05-01T11:15:23.106Z,5846.00
2023-05-01T11:16:23.077Z,5805.00
2023-05-01T11:17:23.010Z,5893.00
2023-05-01T11:18:22.950Z,5829.00
2023-05-01T11:19:22.877Z,5932.00
2023-05-01T11:20:22.805Z,5913.00
2023-05-01T11:21:22.742Z,5815.00
2023-05-01T11:22:22.786Z,5677.00
2023-05-01T11:23:22.621Z,5536.00
2023-05-01T11:24:22.535Z,5436.00
2023-05-01T11:25:22.480Z,5291.00
2023-05-01T11:26:22.395Z,5075.00
2023-05-01T11:27:22.322Z,5117.00
2023-05-01T11:28:22.250Z,5329.00
2023-05-01T11:29:22.162Z,5373.00
2023-05-01T11:30:22.088Z,5641.00
2023-05-01T11:31:22.036Z,5299.00
2023-05-01T11:32:22.043Z,4675.00
2023-05-01T11:33:21.907Z,4570.00
2023-05-01T11:34:21.757Z,4597.00
2023-05-01T11:35:21.709Z,5004.00
2023-05-01T11:36:21.581Z,4562.00
2023-05-01T11:37:21.486Z,4651.00
2023-05-01T11:38:21.446Z,4587.00
2023-05-01T11:39:21.303Z,4472.00
2023-05-01T11:40:21.260Z,4292.00
2023-05-01T11:41:21.150Z,4384.00
2023-05-01T11:42:21.198Z,4388.00
2023-05-01T11:43:21.012Z,4153.00
2023-05-01T11:44:20.940Z,3960.00
2023-05-01T11:45:20.907Z,3524.00
2023-05-01T11:46:20.895Z,3763.00
2023-05-01T11:47:20.892Z,4023.00
2023-05-01T11:48:20.823Z,4192.00
2023-05-01T11:49:20.793Z,4099.00
2023-05-01T11:50:20.791Z,4085.00
2023-05-01T11:51:20.803Z,4204.00
2023-05-01T11:52:20.806Z,4016.00
2023-05-01T11:53:20.829Z,3893.00
2023-05-01T11:54:20.943Z,4021.00
2023-05-01T11:55:20.789Z,4371.00
2023-05-01T11:56:26.776Z,4425.00
2023-05-01T11:57:20.693Z,3867.00
2023-05-01T11:58:20.653Z,3454.00
2023-05-01T11:59:20.564Z,3288.00
2023-05-01T12:00:20.507Z,3187.00
2023-05-01T12:01:20.447Z,3082.00
2023-05-01T12:02:20.413Z,3244.00
2023-05-01T12:03:20.563Z,3144.00
2023-05-01T12:04:20.295Z,3130.00
2023-05-01T12:05:20.155Z,3369.00
2023-05-01T12:06:20.125Z,3437.00
2023-05-01T12:07:20.050Z,3417.00
2023-05-01T12:08:19.957Z,3416.00
2023-05-01T12:09:19.893Z,3644.00
2023-05-01T12:10:19.867Z,3484.00
2023-05-01T12:11:19.784Z,3386.00
2023-05-01T12:12:19.723Z,3714.00
2023-05-01T12:13:19.678Z,3467.00